createdAt,value
2017-07-25T00:00:16.634Z,3.53
2017-07-25T00:02:45.951Z,3.90
2017-07-25T00:05:16.045Z,4.60
2017-07-25T00:07:45.360Z,4.10
2017-07-25T00:10:14.687Z,4.30
2017-07-25T00:12:44.000Z,4.28
2017-07-25T00:15:13.316Z,4.10
2017-07-25T00:17:42.612Z,4.37
2017-07-25T00:20:11.948Z,4.18
2017-07-25T00:22:41.255Z,5.05
2017-07-25T00:25:10.561Z,4.43
2017-07-25T00:27:39.885Z,4.20
2017-07-25T00:30:09.993Z,3.80
2017-07-25T00:32:39.314Z,4.15
2017-07-25T00:35:08.630Z,4.28
2017-07-25T00:37:37.944Z,3.53
2017-07-25T00:40:07.249Z,3.45
2017-07-25T00:42:36.568Z,3.40
2017-07-25T00:45:05.880Z,4.20
2017-07-25T00:47:35.200Z,3.55
2017-07-25T00:50:04.501Z,3.00
2017-07-25T00:52:33.825Z,3.10
2017-07-25T00:55:03.128Z,2.60
2017-07-25T00:57:32.461Z,2.80
2017-07-25T01:00:01.772Z,2.20
2017-07-25T01:02:31.860Z,1.92
2017-07-25T01:05:01.193Z,2.33
2017-07-25T01:07:31.264Z,2.20
2017-07-25T01:10:00.592Z,2.12
2017-07-25T01:12:29.904Z,2.53
2017-07-25T01:15:00.001Z,2.45
2017-07-25T01:17:29.311Z,2.12
2017-07-25T01:19:58.633Z,2.10
2017-07-25T01:22:28.701Z,2.40
2017-07-25T01:24:58.024Z,2.15
2017-07-25T01:27:27.344Z,1.95
2017-07-25T01:29:57.442Z,2.20
2017-07-25T01:32:26.776Z,2.03
2017-07-25T01:34:56.856Z,1.80
2017-07-25T01:37:26.184Z,1.80
2017-07-25T01:39:56.261Z,2.10
2017-07-25T01:42:25.598Z,1.80
2017-07-25T01:44:54.914Z,2.30
2017-07-25T01:47:24.236Z,2.50
2017-07-25T01:49:53.564Z,2.45
2017-07-25T01:52:23.197Z,2.30
2017-07-25T01:54:53.630Z,2.30
2017-07-25T01:57:22.966Z,2.35
2017-07-25T01:59:53.047Z,2.25
2017-07-25T02:02:22.392Z,2.30
2017-07-25T02:04:52.480Z,2.53
2017-07-25T02:07:21.796Z,2.30
2017-07-25T02:09:51.896Z,2.47
2017-07-25T02:12:21.228Z,2.30
2017-07-25T02:14:50.532Z,2.62
2017-07-25T02:17:19.836Z,3.50
2017-07-25T02:19:49.153Z,2.87
2017-07-25T02:22:18.485Z,2.60
2017-07-25T02:24:47.805Z,3.45
2017-07-25T02:27:17.112Z,3.08
2017-07-25T02:29:46.463Z,3.17
2017-07-25T02:32:15.790Z,3.58
2017-07-25T02:34:45.142Z,3.83
2017-07-25T02:37:15.226Z,3.97
2017-07-25T02:39:44.552Z,3.10
2017-07-25T02:42:14.646Z,4.07
2017-07-25T02:44:43.944Z,3.95
2017-07-25T02:47:13.287Z,4.25
2017-07-25T02:49:43.353Z,4.18
2017-07-25T02:52:12.676Z,4.85
2017-07-25T02:54:41.987Z,4.90
2017-07-25T02:57:11.312Z,4.97
2017-07-25T02:59:41.392Z,5.07
2017-07-25T03:02:10.732Z,4.82
2017-07-25T03:04:40.800Z,5.45
2017-07-25T03:07:10.152Z,5.93
2017-07-25T03:09:39.460Z,6.47
2017-07-25T03:12:08.777Z,6.50
2017-07-25T03:14:38.098Z,6.53
2017-07-25T03:17:07.418Z,6.35
2017-07-25T03:19:36.758Z,7.37
2017-07-25T03:22:06.844Z,6.37
2017-07-25T03:24:36.966Z,8.10
2017-07-25T03:27:06.307Z,7.35
2017-07-25T03:29:35.640Z,6.65
2017-07-25T03:32:04.966Z,7.78
2017-07-25T03:34:34.305Z,7.10
2017-07-25T03:37:03.632Z,7.20
2017-07-25T03:39:35.666Z,7.82
2017-07-25T03:42:05.742Z,6.85
2017-07-25T03:44:35.817Z,8.18
2017-07-25T03:47:05.153Z,7.35
2017-07-25T03:49:34.509Z,7.97
2017-07-25T03:52:04.592Z,5.75
2017-07-25T03:54:33.912Z,7.00
2017-07-25T03:57:03.232Z,5.72
2017-07-25T03:59:34.173Z,4.85
2017-07-25T04:02:13.929Z,4.50
2017-07-25T04:04:43.264Z,4.53
2017-07-25T04:07:12.622Z,4.97
2017-07-25T04:09:42.704Z,5.07
2017-07-25T04:12:12.044Z,4.90
2017-07-25T04:14:41.358Z,5.32
2017-07-25T04:17:10.666Z,4.93
2017-07-25T04:19:40.010Z,4.75
2017-07-25T04:22:09.493Z,5.22
2017-07-25T04:24:38.882Z,5.50
2017-07-25T04:27:08.236Z,5.60
2017-07-25T04:29:37.580Z,6.32
2017-07-25T04:32:06.941Z,5.12
2017-07-25T04:34:36.297Z,6.07
2017-07-25T04:37:05.611Z,6.40
2017-07-25T04:39:34.947Z,6.37
2017-07-25T04:42:04.289Z,6.20
2017-07-25T04:44:33.633Z,6.78
2017-07-25T04:47:02.962Z,5.80
2017-07-25T04:49:32.271Z,5.22
2017-07-25T04:52:02.359Z,5.00
2017-07-25T04:54:31.669Z,5.07
2017-07-25T04:57:01.077Z,6.37
2017-07-25T04:59:32.494Z,6.95
2017-07-25T05:02:01.853Z,6.25
2017-07-25T05:04:31.945Z,7.30
2017-07-25T05:07:01.280Z,7.22
2017-07-25T05:09:31.393Z,7.40
2017-07-25T05:12:00.765Z,8.40
2017-07-25T05:14:30.110Z,8.68
2017-07-25T05:16:59.452Z,6.97
2017-07-25T05:19:28.777Z,9.20
2017-07-25T05:21:58.105Z,8.57
2017-07-25T05:24:28.229Z,7.25
2017-07-25T05:26:58.336Z,8.00
2017-07-25T05:29:27.720Z,7.40
2017-07-25T05:31:57.059Z,7.30
2017-07-25T05:34:26.396Z,7.60
2017-07-25T05:36:55.767Z,7.78
2017-07-25T05:39:25.101Z,7.78
2017-07-25T05:41:54.446Z,8.93
2017-07-25T05:44:24.553Z,6.37
2017-07-25T05:46:53.887Z,7.28
2017-07-25T05:49:23.225Z,7.30
2017-07-25T05:51:52.552Z,6.78
2017-07-25T05:54:21.890Z,6.90
2017-07-25T05:56:51.221Z,6.70
2017-07-25T05:59:20.528Z,6.85
2017-07-25T06:01:49.879Z,8.18
2017-07-25T06:04:19.989Z,8.00
2017-07-25T06:06:49.324Z,6.30
2017-07-25T06:09:18.657Z,6.35
2017-07-25T06:11:47.997Z,6.57
2017-07-25T06:14:17.338Z,5.85
2017-07-25T06:16:46.641Z,6.78
2017-07-25T06:19:15.960Z,6.62
2017-07-25T06:21:45.297Z,6.12
2017-07-25T06:24:14.643Z,6.05
2017-07-25T06:26:43.957Z,5.80
2017-07-25T06:29:13.290Z,6.75
2017-07-25T06:31:42.634Z,6.87
2017-07-25T06:34:12.730Z,6.47
2017-07-25T06:36:42.042Z,7.05
2017-07-25T06:39:11.377Z,6.95
2017-07-25T06:41:40.712Z,6.78
2017-07-25T06:44:10.048Z,8.25
2017-07-25T06:46:40.144Z,6.90
2017-07-25T06:49:10.317Z,7.40
2017-07-25T06:51:39.629Z,7.90
2017-07-25T06:54:08.961Z,7.95
2017-07-25T06:56:38.293Z,7.35
2017-07-25T06:59:07.637Z,7.40
2017-07-25T07:01:36.962Z,7.93
2017-07-25T07:04:06.293Z,7.00
2017-07-25T07:06:36.408Z,7.90
2017-07-25T07:09:05.738Z,7.20
2017-07-25T07:11:35.115Z,7.62
2017-07-25T07:14:05.232Z,7.55
2017-07-25T07:16:34.566Z,7.40
2017-07-25T07:19:03.904Z,7.05
2017-07-25T07:21:33.236Z,6.75
2017-07-25T07:24:02.569Z,6.75
2017-07-25T07:26:31.938Z,6.90
2017-07-25T07:29:01.347Z,8.02
2017-07-25T07:31:31.482Z,7.25
2017-07-25T07:34:00.793Z,7.43
2017-07-25T07:36:30.135Z,7.00
2017-07-25T07:38:59.478Z,6.97
2017-07-25T07:41:29.589Z,6.22
2017-07-25T07:43:58.925Z,6.82
2017-07-25T07:46:28.301Z,6.03
2017-07-25T07:48:57.624Z,6.95
2017-07-25T07:51:26.937Z,6.40
2017-07-25T07:53:56.269Z,6.45
2017-07-25T07:56:25.585Z,7.62
2017-07-25T07:58:54.958Z,8.45
2017-07-25T08:01:24.365Z,8.57
2017-07-25T08:03:53.677Z,8.50
2017-07-25T08:06:22.999Z,8.30
2017-07-25T08:08:53.131Z,9.30
2017-07-25T08:11:23.252Z,8.32
2017-07-25T08:13:52.563Z,7.20
2017-07-25T08:16:22.664Z,7.47
2017-07-25T08:18:52.005Z,7.07
2017-07-25T08:21:22.016Z,7.40
2017-07-25T08:23:52.081Z,7.05
2017-07-25T08:26:21.479Z,7.15
2017-07-25T08:28:51.736Z,7.32
2017-07-25T08:31:21.048Z,6.60
2017-07-25T08:33:51.216Z,7.70
2017-07-25T08:36:20.532Z,7.43
2017-07-25T08:38:49.856Z,8.32
2017-07-25T08:41:19.216Z,8.60
2017-07-25T08:43:48.553Z,7.95
2017-07-25T08:46:18.105Z,7.40
2017-07-25T08:48:47.448Z,6.87
2017-07-25T08:51:17.041Z,7.07
2017-07-25T08:53:46.441Z,6.50
2017-07-25T08:56:15.755Z,5.80
2017-07-25T08:58:45.125Z,6.80
2017-07-25T09:01:14.441Z,5.60
2017-07-25T09:03:43.826Z,6.28
2017-07-25T09:06:13.144Z,6.57
2017-07-25T09:08:53.100Z,6.50
2017-07-25T09:11:22.501Z,6.60
2017-07-25T09:13:51.817Z,6.20
2017-07-25T09:16:21.204Z,5.75
2017-07-25T09:18:50.544Z,6.45
2017-07-25T09:21:19.883Z,6.15
2017-07-25T09:23:51.607Z,6.40
2017-07-25T09:26:21.005Z,6.60
2017-07-25T09:28:50.312Z,6.28
2017-07-25T09:31:19.644Z,5.85
2017-07-25T09:33:48.958Z,5.72
2017-07-25T09:36:20.016Z,4.90
2017-07-25T09:38:49.388Z,4.95
2017-07-25T09:41:19.502Z,4.70
2017-07-25T09:43:49.568Z,4.72
2017-07-25T09:46:18.885Z,4.50
2017-07-25T09:48:48.207Z,4.85
2017-07-25T09:51:17.521Z,4.57
2017-07-25T09:53:47.613Z,4.10
2017-07-25T09:56:16.918Z,4.85
2017-07-25T09:58:46.247Z,4.50
2017-07-25T10:01:16.336Z,4.80
2017-07-25T10:03:45.668Z,4.80
2017-07-25T10:06:14.989Z,4.80
2017-07-25T10:08:44.317Z,3.97
2017-07-25T10:11:13.639Z,4.80
2017-07-25T10:13:42.979Z,5.15
2017-07-25T10:16:13.056Z,5.43
2017-07-25T10:18:42.391Z,5.57
2017-07-25T10:21:12.470Z,4.85
2017-07-25T10:23:43.062Z,6.40
2017-07-25T10:26:13.170Z,21.98
2017-07-25T10:28:42.495Z,6.37
2017-07-25T10:31:11.812Z,6.37
2017-07-25T10:33:41.132Z,6.10
2017-07-25T10:36:10.472Z,5.95
2017-07-25T10:38:40.560Z,5.97
2017-07-25T10:41:09.887Z,5.37
2017-07-25T10:43:39.196Z,5.72
2017-07-25T10:46:09.336Z,6.72
2017-07-25T10:48:38.660Z,6.30
2017-07-25T10:51:08.017Z,6.62
2017-07-25T10:54:08.569Z,6.15
2017-07-25T10:56:37.881Z,6.50
2017-07-25T10:59:07.215Z,7.60
2017-07-25T11:01:36.544Z,7.28
2017-07-25T11:04:05.944Z,6.53
2017-07-25T11:06:35.255Z,7.70
2017-07-25T11:09:04.595Z,6.78
2017-07-25T11:11:33.921Z,8.30
2017-07-25T11:14:03.272Z,8.02
2017-07-25T11:16:32.583Z,7.03
2017-07-25T11:19:01.948Z,7.50
2017-07-25T11:21:32.056Z,5.57
2017-07-25T11:24:01.435Z,6.43
2017-07-25T11:26:30.741Z,6.05
2017-07-25T11:29:04.496Z,5.00
2017-07-25T11:31:34.577Z,5.55
2017-07-25T11:34:03.914Z,6.37
2017-07-25T11:36:33.690Z,6.25
2017-07-25T11:39:04.101Z,5.93
2017-07-25T11:41:33.428Z,5.62
2017-07-25T11:44:02.779Z,5.90
2017-07-25T11:46:32.869Z,5.75
2017-07-25T11:49:02.179Z,6.10
2017-07-25T11:51:31.589Z,6.68
2017-07-25T11:54:01.668Z,6.75
2017-07-25T11:56:31.008Z,6.25
2017-07-25T11:59:01.087Z,5.10
2017-07-25T12:01:30.421Z,6.75
2017-07-25T12:03:59.740Z,5.72
2017-07-25T12:06:29.845Z,5.25
2017-07-25T12:08:59.164Z,6.43
2017-07-25T12:11:29.256Z,5.70
2017-07-25T12:13:58.585Z,6.00
2017-07-25T12:16:28.693Z,6.82
2017-07-25T12:18:58.798Z,6.87
2017-07-25T12:21:45.788Z,6.80
2017-07-25T12:24:15.113Z,6.40
2017-07-25T12:26:44.460Z,6.53
2017-07-25T12:29:13.769Z,7.00
2017-07-25T12:31:43.092Z,6.87
2017-07-25T12:34:22.738Z,7.75
2017-07-25T12:36:52.051Z,7.07
2017-07-25T12:39:22.422Z,5.87
2017-07-25T12:41:51.733Z,6.03
2017-07-25T12:44:21.060Z,5.32
2017-07-25T12:46:50.364Z,6.18
2017-07-25T12:49:19.720Z,7.90
2017-07-25T12:51:49.039Z,7.20
2017-07-25T12:54:18.437Z,7.20
2017-07-25T12:56:47.786Z,6.53
2017-07-25T12:59:17.105Z,5.72
2017-07-25T13:02:03.926Z,6.20
2017-07-25T13:04:33.249Z,6.65
2017-07-25T13:07:02.581Z,6.45
2017-07-25T13:09:31.914Z,6.22
2017-07-25T13:12:02.193Z,6.90
2017-07-25T13:14:48.080Z,5.97
2017-07-25T13:17:17.510Z,6.05
2017-07-25T13:19:46.961Z,5.43
2017-07-25T13:22:17.073Z,4.78
2017-07-25T13:24:47.191Z,5.15
2017-07-25T13:27:16.543Z,4.57
2017-07-25T13:29:45.858Z,5.30
2017-07-25T13:32:15.165Z,5.20
2017-07-25T13:34:44.494Z,5.07
2017-07-25T13:37:13.812Z,5.82
2017-07-25T13:39:43.909Z,6.10
2017-07-25T13:42:13.247Z,5.47
2017-07-25T13:44:42.577Z,4.82
2017-07-25T13:47:11.896Z,5.25
2017-07-25T13:49:41.221Z,6.43
2017-07-25T13:52:10.559Z,5.93
2017-07-25T13:54:39.881Z,6.97
2017-07-25T13:57:09.198Z,5.35
2017-07-25T13:59:38.507Z,6.10
2017-07-25T14:02:07.836Z,5.85
2017-07-25T14:04:37.153Z,6.10
2017-07-25T14:07:06.497Z,5.80
2017-07-25T14:09:35.808Z,6.30
2017-07-25T14:12:05.121Z,5.62
2017-07-25T14:14:34.451Z,5.65
2017-07-25T14:17:04.541Z,5.07
2017-07-25T14:19:33.873Z,5.47
2017-07-25T14:22:03.954Z,5.70
2017-07-25T14:24:33.287Z,6.20
2017-07-25T14:27:03.386Z,6.60
2017-07-25T14:29:32.748Z,6.82
2017-07-25T14:32:02.074Z,6.45
2017-07-25T14:34:31.436Z,5.57
2017-07-25T14:37:00.744Z,5.85
2017-07-25T14:39:30.097Z,5.20
2017-07-25T14:41:59.420Z,5.53
2017-07-25T14:44:29.544Z,6.68
2017-07-25T14:46:59.632Z,6.45
2017-07-25T14:49:28.985Z,6.72
2017-07-25T14:51:58.311Z,6.78
2017-07-25T14:54:27.684Z,6.00
2017-07-25T14:56:57.109Z,6.55
2017-07-25T14:59:26.547Z,5.80
2017-07-25T15:01:55.929Z,5.95
2017-07-25T15:04:25.333Z,5.55
2017-07-25T15:06:59.924Z,5.40
2017-07-25T15:09:31.825Z,6.45
2017-07-25T15:12:02.091Z,6.70
2017-07-25T15:14:37.377Z,5.35
2017-07-25T15:17:06.793Z,6.00
2017-07-25T15:19:36.144Z,6.25
2017-07-25T15:22:07.361Z,5.55
2017-07-25T15:24:48.008Z,5.47
2017-07-25T15:27:17.381Z,5.10
2017-07-25T15:29:47.727Z,5.18
2017-07-25T15:32:20.483Z,4.80
2017-07-25T15:34:49.788Z,5.05
2017-07-25T15:37:19.132Z,5.28
2017-07-25T15:39:48.476Z,5.32
2017-07-25T15:42:17.849Z,5.60
2017-07-25T15:44:47.181Z,5.60
2017-07-25T15:47:30.236Z,4.75
2017-07-25T15:49:59.582Z,5.72
2017-07-25T15:52:28.958Z,5.55
2017-07-25T15:54:58.321Z,5.90
2017-07-25T15:57:27.637Z,6.25
2017-07-25T15:59:56.964Z,6.07
2017-07-25T16:02:26.286Z,6.30
2017-07-25T16:04:56.380Z,6.32
2017-07-25T16:07:25.697Z,7.60
2017-07-25T16:09:55.792Z,6.22
2017-07-25T16:12:25.125Z,7.65
2017-07-25T16:14:57.765Z,7.20
2017-07-25T16:17:27.091Z,7.18
2017-07-25T16:19:56.408Z,7.62
2017-07-25T16:22:26.540Z,8.13
2017-07-25T16:24:55.885Z,6.10
2017-07-25T16:27:25.249Z,7.37
2017-07-25T16:29:54.834Z,8.05
2017-07-25T16:32:24.198Z,9.63
2017-07-25T16:34:56.073Z,7.18
2017-07-25T16:37:30.630Z,10.88
2017-07-25T16:39:59.945Z,7.03
2017-07-25T16:42:29.245Z,7.05
2017-07-25T16:44:58.597Z,9.77
2017-07-25T16:47:28.153Z,7.57
2017-07-25T16:49:57.478Z,5.80
2017-07-25T16:52:26.781Z,5.95
2017-07-25T16:54:56.105Z,6.47
2017-07-25T16:57:25.417Z,5.30
2017-07-25T16:59:54.748Z,6.28
2017-07-25T17:02:24.825Z,7.43
2017-07-25T17:04:54.148Z,6.78
2017-07-25T17:07:23.443Z,5.90
2017-07-25T17:09:52.772Z,5.57
2017-07-25T17:12:22.082Z,5.25
2017-07-25T17:14:51.381Z,5.57
2017-07-25T17:17:20.715Z,5.72
2017-07-25T17:19:50.008Z,4.95
2017-07-25T17:22:19.393Z,5.28
2017-07-25T17:24:48.716Z,4.60
2017-07-25T17:27:18.037Z,5.80
2017-07-25T17:29:47.381Z,5.00
2017-07-25T17:32:17.462Z,5.15
2017-07-25T17:34:46.764Z,5.55
2017-07-25T17:37:16.093Z,5.00
2017-07-25T17:39:45.393Z,5.43
2017-07-25T17:42:15.503Z,5.60
2017-07-25T17:44:44.816Z,5.85
2017-07-25T17:47:14.924Z,5.53
2017-07-25T17:49:44.252Z,6.30
2017-07-25T17:52:13.600Z,5.40
2017-07-25T17:54:42.930Z,5.25
2017-07-25T17:57:12.233Z,5.25
2017-07-25T17:59:42.336Z,5.37
2017-07-25T18:02:11.641Z,4.85
2017-07-25T18:04:40.961Z,4.80
2017-07-25T18:07:11.060Z,5.00
2017-07-25T18:09:40.400Z,5.05
2017-07-25T18:12:09.745Z,5.78
2017-07-25T18:14:39.050Z,5.03
2017-07-25T18:17:08.369Z,4.25
2017-07-25T18:19:37.676Z,5.12
2017-07-25T18:22:07.001Z,4.50
2017-07-25T18:24:37.086Z,4.53
2017-07-25T18:27:06.416Z,4.28
2017-07-25T18:29:35.718Z,4.72
2017-07-25T18:32:05.808Z,4.40
2017-07-25T18:34:35.128Z,5.00
2017-07-25T18:37:04.465Z,4.75
2017-07-25T18:39:33.779Z,5.00
2017-07-25T18:42:03.080Z,5.00
2017-07-25T18:44:32.409Z,4.60
2017-07-25T18:47:01.737Z,5.12
2017-07-25T18:49:31.829Z,5.45
2017-07-25T18:52:01.136Z,5.70
2017-07-25T18:54:30.464Z,6.80
2017-07-25T18:56:59.769Z,5.43
2017-07-25T18:59:29.097Z,5.47
2017-07-25T19:01:58.404Z,5.82
2017-07-25T19:04:27.730Z,5.47
2017-07-25T19:06:57.037Z,5.20
2017-07-25T19:09:26.357Z,4.72
2017-07-25T19:11:55.669Z,5.70
2017-07-25T19:14:25.803Z,4.80
2017-07-25T19:16:55.880Z,4.82
2017-07-25T19:19:25.213Z,4.70
2017-07-25T19:21:55.309Z,4.20
2017-07-25T19:24:24.621Z,4.55
2017-07-25T19:26:53.953Z,4.55
2017-07-25T19:29:23.265Z,3.40
2017-07-25T19:31:52.595Z,4.10
2017-07-25T19:34:21.905Z,3.72
2017-07-25T19:36:51.824Z,3.55
2017-07-25T19:39:21.179Z,4.10
2017-07-25T19:41:50.529Z,4.03
2017-07-25T19:44:19.855Z,3.60
2017-07-25T19:46:49.190Z,3.55
2017-07-25T19:49:18.554Z,3.55
2017-07-25T19:51:47.933Z,3.60
2017-07-25T19:54:17.264Z,3.50
2017-07-25T19:56:46.674Z,3.53
2017-07-25T19:59:16.038Z,4.10
2017-07-25T20:01:46.124Z,3.78
2017-07-25T20:04:15.463Z,3.30
2017-07-25T20:06:44.794Z,3.65
2017-07-25T20:09:14.132Z,3.00
2017-07-25T20:11:43.458Z,4.00
2017-07-25T20:14:13.615Z,4.07
2017-07-25T20:16:43.060Z,3.67
2017-07-25T20:19:17.584Z,4.10
2017-07-25T20:21:46.917Z,3.85
2017-07-25T20:24:16.245Z,3.95
2017-07-25T20:26:45.582Z,3.80
2017-07-25T20:29:14.916Z,3.90
2017-07-25T20:31:45.003Z,3.97
2017-07-25T20:34:15.201Z,4.22
2017-07-25T20:36:44.521Z,3.87
2017-07-25T20:39:13.853Z,3.83
2017-07-25T20:41:43.977Z,4.32
2017-07-25T20:44:13.304Z,4.00
2017-07-25T20:46:42.644Z,4.15
2017-07-25T20:49:11.997Z,4.00
2017-07-25T20:51:41.370Z,4.00
2017-07-25T20:54:10.707Z,4.10
2017-07-25T20:56:40.051Z,4.30
2017-07-25T20:59:09.396Z,4.35
2017-07-25T21:01:39.509Z,4.05
2017-07-25T21:04:09.607Z,4.43
2017-07-25T21:06:38.941Z,3.90
2017-07-25T21:09:08.289Z,4.55
2017-07-25T21:11:37.633Z,4.55
2017-07-25T21:14:06.961Z,4.60
2017-07-25T21:16:36.343Z,4.50
2017-07-25T21:19:06.445Z,4.60
2017-07-25T21:21:35.774Z,4.55
2017-07-25T21:24:05.110Z,4.68
2017-07-25T21:26:34.429Z,5.18
2017-07-25T21:29:17.489Z,4.40
2017-07-25T21:31:47.594Z,4.50
2017-07-25T21:34:16.929Z,4.62
2017-07-25T21:36:46.252Z,5.12
2017-07-25T21:39:15.596Z,4.65
2017-07-25T21:41:44.925Z,5.65
2017-07-25T21:44:14.275Z,5.93
2017-07-25T21:46:43.600Z,5.00
2017-07-25T21:49:12.928Z,5.28
2017-07-25T21:51:42.278Z,4.22
2017-07-25T21:54:11.590Z,4.22
2017-07-25T21:56:40.924Z,4.47
2017-07-25T21:59:11.003Z,3.72
2017-07-25T22:01:57.957Z,5.32
2017-07-25T22:04:44.886Z,4.60
2017-07-25T22:07:14.231Z,3.90
2017-07-25T22:09:43.226Z,3.67
2017-07-25T22:12:12.253Z,3.85
2017-07-25T22:14:41.266Z,3.95
2017-07-25T22:17:10.284Z,3.85
2017-07-25T22:19:39.297Z,4.03
2017-07-25T22:22:08.309Z,4.20
2017-07-25T22:24:37.319Z,3.97
2017-07-25T22:27:06.347Z,3.42
2017-07-25T22:29:35.401Z,4.03
2017-07-25T22:32:04.426Z,3.78
2017-07-25T22:34:34.201Z,3.80
2017-07-25T22:37:03.241Z,3.90
2017-07-25T22:39:32.996Z,3.85
2017-07-25T22:42:02.006Z,3.75
2017-07-25T22:44:31.029Z,3.95
2017-07-25T22:47:00.797Z,4.55
2017-07-25T22:49:29.816Z,3.87
2017-07-25T22:51:58.812Z,3.80
2017-07-25T22:54:27.836Z,3.60
2017-07-25T22:56:57.598Z,3.03
2017-07-25T22:59:26.614Z,3.95
2017-07-25T23:01:55.617Z,4.15
2017-07-25T23:04:24.628Z,4.30
2017-07-25T23:06:54.394Z,3.50
2017-07-25T23:09:23.402Z,3.22
2017-07-25T23:11:52.388Z,3.28
2017-07-25T23:14:21.437Z,3.17
2017-07-25T23:16:50.428Z,3.20
2017-07-25T23:19:19.454Z,3.05
2017-07-25T23:21:48.465Z,3.15
2017-07-25T23:24:17.462Z,2.97
2017-07-25T23:26:46.483Z,3.20
2017-07-25T23:29:16.273Z,3.35
2017-07-25T23:31:45.293Z,2.83
2017-07-25T23:34:15.084Z,3.10
2017-07-25T23:36:44.096Z,2.70
2017-07-25T23:39:13.870Z,2.80
2017-07-25T23:41:42.902Z,2.35
2017-07-25T23:44:11.900Z,2.50
2017-07-25T23:46:40.909Z,2.60
2017-07-25T23:49:09.926Z,3.67
2017-07-25T23:51:38.923Z,3.00
2017-07-25T23:54:07.940Z,3.28
2017-07-25T23:56:36.950Z,2.92
2017-07-25T23:59:05.962Z,2.80
